sensor_id;sensor_type;location;lat;lon;timestamp;pressure;altitude;pressure_sealevel;temperature;humidity
65872;BME280;52653;50.080;21.992;2023-02-11T00:01:18;100765.29;;;0.40;72.53
65872;BME280;52653;50.080;21.992;2023-02-11T00:04:10;100760.18;;;0.44;72.40
65872;BME280;52653;50.080;21.992;2023-02-11T00:07:06;100756.04;;;0.47;72.39
65872;BME280;52653;50.080;21.992;2023-02-11T00:09:58;100753.69;;;0.51;72.37
65872;BME280;52653;50.080;21.992;2023-02-11T00:12:53;100751.88;;;0.55;72.47
65872;BME280;52653;50.080;21.992;2023-02-11T00:15:45;100748.03;;;0.58;72.29
65872;BME280;52653;50.080;21.992;2023-02-11T00:18:41;100746.73;;;0.56;72.22
65872;BME280;52653;50.080;21.992;2023-02-11T00:21:34;100740.79;;;0.51;72.38
65872;BME280;52653;50.080;21.992;2023-02-11T00:24:28;100741.52;;;0.46;72.48
65872;BME280;52653;50.080;21.992;2023-02-11T00:27:22;100743.02;;;0.42;72.61
65872;BME280;52653;50.080;21.992;2023-02-11T00:30:15;100741.52;;;0.38;72.76
65872;BME280;52653;50.080;21.992;2023-02-11T00:33:08;100743.45;;;0.32;72.74
65872;BME280;52653;50.080;21.992;2023-02-11T00:36:05;100744.63;;;0.28;72.88
65872;BME280;52653;50.080;21.992;2023-02-11T00:39:01;100742.83;;;0.24;72.83
65872;BME280;52653;50.080;21.992;2023-02-11T00:41:54;100743.08;;;0.20;72.87
65872;BME280;52653;50.080;21.992;2023-02-11T00:44:47;100738.01;;;0.16;72.86
65872;BME280;52653;50.080;21.992;2023-02-11T00:47:33;100732.71;;;0.13;73.02
65872;BME280;52653;50.080;21.992;2023-02-11T00:50:26;100726.08;;;0.15;72.86
65872;BME280;52653;50.080;21.992;2023-02-11T00:53:19;100720.61;;;0.19;72.66
65872;BME280;52653;50.080;21.992;2023-02-11T00:56:12;100710.39;;;0.24;72.34
65872;BME280;52653;50.080;21.992;2023-02-11T00:59:05;100704.35;;;0.30;72.31
65872;BME280;52653;50.080;21.992;2023-02-11T01:01:58;100698.48;;;0.34;72.15
65872;BME280;52653;50.080;21.992;2023-02-11T01:04:51;100693.79;;;0.33;71.96
65872;BME280;52653;50.080;21.992;2023-02-11T01:07:44;100685.95;;;0.32;72.13
65872;BME280;52653;50.080;21.992;2023-02-11T01:10:38;100682.73;;;0.29;72.02
65872;BME280;52653;50.080;21.992;2023-02-11T01:13:34;100681.67;;;0.26;72.07
65872;BME280;52653;50.080;21.992;2023-02-11T01:16:27;100675.52;;;0.21;72.17
65872;BME280;52653;50.080;21.992;2023-02-11T01:19:20;100674.27;;;0.17;72.06
65872;BME280;52653;50.080;21.992;2023-02-11T01:22:13;100661.73;;;0.12;72.30
65872;BME280;52653;50.080;21.992;2023-02-11T01:25:06;100661.27;;;0.07;72.36
65872;BME280;52653;50.080;21.992;2023-02-11T01:27:59;100658.33;;;0.04;72.39
65872;BME280;52653;50.080;21.992;2023-02-11T01:30:46;100651.36;;;-0.00;72.54
65872;BME280;52653;50.080;21.992;2023-02-11T01:33:39;100648.30;;;-0.03;72.55
65872;BME280;52653;50.080;21.992;2023-02-11T01:36:32;100646.83;;;-0.01;72.43
65872;BME280;52653;50.080;21.992;2023-02-11T01:39:25;100645.38;;;0.04;72.31
65872;BME280;52653;50.080;21.992;2023-02-11T01:42:20;100645.03;;;0.10;72.25
65872;BME280;52653;50.080;21.992;2023-02-11T01:45:51;100640.36;;;0.15;72.23
65872;BME280;52653;50.080;21.992;2023-02-11T01:48:48;100640.94;;;0.17;71.88
65872;BME280;52653;50.080;21.992;2023-02-11T01:51:47;100640.91;;;0.13;71.58
65872;BME280;52653;50.080;21.992;2023-02-11T01:54:43;100634.52;;;0.10;71.86
65872;BME280;52653;50.080;21.992;2023-02-11T01:57:58;100634.63;;;0.06;71.89
65872;BME280;52653;50.080;21.992;2023-02-11T02:00:54;100628.86;;;0.01;71.99
65872;BME280;52653;50.080;21.992;2023-02-11T02:03:49;100619.60;;;-0.04;71.95
65872;BME280;52653;50.080;21.992;2023-02-11T02:06:47;100614.71;;;-0.08;71.92
65872;BME280;52653;50.080;21.992;2023-02-11T02:09:54;100612.48;;;-0.11;72.19
65872;BME280;52653;50.080;21.992;2023-02-11T02:12:48;100613.18;;;-0.13;72.33
65872;BME280;52653;50.080;21.992;2023-02-11T02:15:34;100615.98;;;-0.15;72.15
65872;BME280;52653;50.080;21.992;2023-02-11T02:18:38;100615.12;;;-0.16;72.40
65872;BME280;52653;50.080;21.992;2023-02-11T02:25:14;100612.03;;;-0.07;72.19
65872;BME280;52653;50.080;21.992;2023-02-11T02:28:30;100600.89;;;0.01;71.85
65872;BME280;52653;50.080;21.992;2023-02-11T02:31:44;100596.88;;;0.06;71.31
65872;BME280;52653;50.080;21.992;2023-02-11T02:34:48;100596.02;;;0.06;71.00
65872;BME280;52653;50.080;21.992;2023-02-11T02:37:47;100596.60;;;0.04;71.03
65872;BME280;52653;50.080;21.992;2023-02-11T02:40:50;100597.53;;;-0.01;70.75
65872;BME280;52653;50.080;21.992;2023-02-11T02:43:48;100589.41;;;-0.07;70.75
65872;BME280;52653;50.080;21.992;2023-02-11T02:46:35;100589.44;;;-0.13;70.97
65872;BME280;52653;50.080;21.992;2023-02-11T02:49:29;100583.85;;;-0.20;70.76
65872;BME280;52653;50.080;21.992;2023-02-11T02:52:34;100579.12;;;-0.27;70.91
65872;BME280;52653;50.080;21.992;2023-02-11T02:55:47;100577.07;;;-0.33;71.04
65872;BME280;52653;50.080;21.992;2023-02-11T02:59:15;100579.52;;;-0.38;71.24
65872;BME280;52653;50.080;21.992;2023-02-11T03:02:17;100586.77;;;-0.44;71.38
65872;BME280;52653;50.080;21.992;2023-02-11T03:05:09;100593.39;;;-0.51;71.32
65872;BME280;52653;50.080;21.992;2023-02-11T03:08:26;100588.45;;;-0.60;71.22
65872;BME280;52653;50.080;21.992;2023-02-11T03:11:22;100589.48;;;-0.68;71.19
65872;BME280;52653;50.080;21.992;2023-02-11T03:14:17;100586.55;;;-0.74;71.21
65872;BME280;52653;50.080;21.992;2023-02-11T03:17:11;100583.74;;;-0.78;71.32
65872;BME280;52653;50.080;21.992;2023-02-11T03:20:08;100585.81;;;-0.81;71.10
65872;BME280;52653;50.080;21.992;2023-02-11T03:23:00;100583.80;;;-0.82;70.92
65872;BME280;52653;50.080;21.992;2023-02-11T03:26:07;100571.95;;;-0.85;70.81
65872;BME280;52653;50.080;21.992;2023-02-11T03:29:09;100566.17;;;-0.89;70.70
65872;BME280;52653;50.080;21.992;2023-02-11T03:32:04;100555.27;;;-0.96;70.73
65872;BME280;52653;50.080;21.992;2023-02-11T03:35:01;100542.95;;;-1.03;70.97
65872;BME280;52653;50.080;21.992;2023-02-11T03:37:58;100536.52;;;-1.13;71.10
65872;BME280;52653;50.080;21.992;2023-02-11T03:40:53;100526.85;;;-1.22;71.39
65872;BME280;52653;50.080;21.992;2023-02-11T03:43:50;100526.40;;;-1.30;71.59
65872;BME280;52653;50.080;21.992;2023-02-11T03:46:49;100518.23;;;-1.37;71.62
65872;BME280;52653;50.080;21.992;2023-02-11T03:49:34;100520.01;;;-1.44;71.88
65872;BME280;52653;50.080;21.992;2023-02-11T03:52:27;100517.70;;;-1.51;71.92
65872;BME280;52653;50.080;21.992;2023-02-11T03:55:16;100515.02;;;-1.58;72.11
65872;BME280;52653;50.080;21.992;2023-02-11T03:58:10;100503.75;;;-1.65;72.18
65872;BME280;52653;50.080;21.992;2023-02-11T04:01:04;100495.77;;;-1.71;72.45
65872;BME280;52653;50.080;21.992;2023-02-11T04:04:00;100489.66;;;-1.73;72.48
65872;BME280;52653;50.080;21.992;2023-02-11T04:06:45;100486.14;;;-1.72;72.26
65872;BME280;52653;50.080;21.992;2023-02-11T04:09:39;100478.42;;;-1.68;72.24
65872;BME280;52653;50.080;21.992;2023-02-11T04:12:32;100464.98;;;-1.64;72.03
65872;BME280;52653;50.080;21.992;2023-02-11T04:15:25;100460.91;;;-1.60;72.00
65872;BME280;52653;50.080;21.992;2023-02-11T04:18:18;100467.70;;;-1.58;71.79
65872;BME280;52653;50.080;21.992;2023-02-11T04:20:58;100464.85;;;-1.60;71.78
65872;BME280;52653;50.080;21.992;2023-02-11T04:23:51;100462.98;;;-1.63;71.81
65872;BME280;52653;50.080;21.992;2023-02-11T04:26:44;100464.05;;;-1.67;71.90
65872;BME280;52653;50.080;21.992;2023-02-11T04:29:37;100452.30;;;-1.71;72.04
65872;BME280;52653;50.080;21.992;2023-02-11T04:32:30;100448.64;;;-1.75;72.08
65872;BME280;52653;50.080;21.992;2023-02-11T04:35:23;100448.36;;;-1.79;72.04
65872;BME280;52653;50.080;21.992;2023-02-11T04:38:16;100437.45;;;-1.84;72.16
65872;BME280;52653;50.080;21.992;2023-02-11T04:41:09;100425.35;;;-1.88;72.48
65872;BME280;52653;50.080;21.992;2023-02-11T04:44:02;100417.52;;;-1.92;72.49
65872;BME280;52653;50.080;21.992;2023-02-11T04:46:55;100419.88;;;-1.92;72.41
65872;BME280;52653;50.080;21.992;2023-02-11T04:49:47;100416.55;;;-1.91;72.39
65872;BME280;52653;50.080;21.992;2023-02-11T04:52:40;100412.31;;;-1.87;72.19
65872;BME280;52653;50.080;21.992;2023-02-11T04:55:33;100400.40;;;-1.82;72.06
65872;BME280;52653;50.080;21.992;2023-02-11T04:58:26;100396.52;;;-1.75;72.05
65872;BME280;52653;50.080;21.992;2023-02-11T05:01:19;100402.46;;;-1.70;71.68
65872;BME280;52653;50.080;21.992;2023-02-11T05:04:13;100409.39;;;-1.70;71.53
65872;BME280;52653;50.080;21.992;2023-02-11T05:07:05;100415.78;;;-1.69;71.57
65872;BME280;52653;50.080;21.992;2023-02-11T05:09:58;100422.90;;;-1.71;71.49
65872;BME280;52653;50.080;21.992;2023-02-11T05:12:51;100428.26;;;-1.76;71.59
65872;BME280;52653;50.080;21.992;2023-02-11T05:15:47;100429.45;;;-1.82;71.64
65872;BME280;52653;50.080;21.992;2023-02-11T05:18:41;100424.80;;;-1.88;71.65
65872;BME280;52653;50.080;21.992;2023-02-11T05:21:35;100416.20;;;-1.93;71.79
65872;BME280;52653;50.080;21.992;2023-02-11T05:24:27;100413.27;;;-1.96;71.95
65872;BME280;52653;50.080;21.992;2023-02-11T05:27:21;100416.80;;;-2.01;71.99
65872;BME280;52653;50.080;21.992;2023-02-11T05:30:14;100414.47;;;-2.02;71.82
65872;BME280;52653;50.080;21.992;2023-02-11T05:33:08;100424.08;;;-2.05;72.06
65872;BME280;52653;50.080;21.992;2023-02-11T05:36:03;100435.14;;;-2.07;72.08
65872;BME280;52653;50.080;21.992;2023-02-11T05:38:56;100443.35;;;-2.08;72.14
65872;BME280;52653;50.080;21.992;2023-02-11T05:41:49;100451.38;;;-2.05;72.09
65872;BME280;52653;50.080;21.992;2023-02-11T05:44:42;100450.27;;;-2.01;71.96
65872;BME280;52653;50.080;21.992;2023-02-11T05:47:27;100465.11;;;-1.98;71.68
65872;BME280;52653;50.080;21.992;2023-02-11T05:50:13;100461.55;;;-1.94;71.62
65872;BME280;52653;50.080;21.992;2023-02-11T05:53:06;100438.07;;;-1.93;71.39
65872;BME280;52653;50.080;21.992;2023-02-11T05:55:59;100421.33;;;-1.94;71.51
65872;BME280;52653;50.080;21.992;2023-02-11T05:58:52;100420.23;;;-1.95;71.67
65872;BME280;52653;50.080;21.992;2023-02-11T06:01:45;100386.38;;;-1.98;71.73
65872;BME280;52653;50.080;21.992;2023-02-11T06:04:37;100362.30;;;-2.01;71.76
65872;BME280;52653;50.080;21.992;2023-02-11T06:07:30;100336.83;;;-2.04;71.72
65872;BME280;52653;50.080;21.992;2023-02-11T06:10:23;100338.48;;;-2.08;71.92
65872;BME280;52653;50.080;21.992;2023-02-11T06:13:16;100345.35;;;-2.11;72.12
65872;BME280;52653;50.080;21.992;2023-02-11T06:16:09;100339.57;;;-2.15;72.25
65872;BME280;52653;50.080;21.992;2023-02-11T06:19:03;100335.97;;;-2.18;72.31
65872;BME280;52653;50.080;21.992;2023-02-11T06:21:56;100324.20;;;-2.19;72.34
65872;BME280;52653;50.080;21.992;2023-02-11T06:24:48;100328.33;;;-2.20;72.11
65872;BME280;52653;50.080;21.992;2023-02-11T06:27:52;100345.77;;;-2.15;72.02
65872;BME280;52653;50.080;21.992;2023-02-11T06:30:38;100340.13;;;-2.09;72.14
65872;BME280;52653;50.080;21.992;2023-02-11T06:33:31;100324.52;;;-2.03;71.89
65872;BME280;52653;50.080;21.992;2023-02-11T06:36:24;100321.98;;;-1.97;71.64
65872;BME280;52653;50.080;21.992;2023-02-11T06:39:18;100316.14;;;-1.91;71.42
65872;BME280;52653;50.080;21.992;2023-02-11T06:42:04;100316.72;;;-1.87;71.41
65872;BME280;52653;50.080;21.992;2023-02-11T06:44:51;100307.73;;;-1.85;71.10
65872;BME280;52653;50.080;21.992;2023-02-11T06:47:44;100318.51;;;-1.83;71.18
65872;BME280;52653;50.080;21.992;2023-02-11T06:50:37;100313.23;;;-1.82;71.07
65872;BME280;52653;50.080;21.992;2023-02-11T06:53:29;100312.41;;;-1.81;71.10
65872;BME280;52653;50.080;21.992;2023-02-11T06:56:23;100313.96;;;-1.81;70.78
65872;BME280;52653;50.080;21.992;2023-02-11T06:59:09;100311.80;;;-1.80;70.78
65872;BME280;52653;50.080;21.992;2023-02-11T07:02:04;100317.98;;;-1.77;70.79
65872;BME280;52653;50.080;21.992;2023-02-11T07:04:51;100317.02;;;-1.73;70.74
65872;BME280;52653;50.080;21.992;2023-02-11T07:07:46;100318.55;;;-1.67;70.53
65872;BME280;52653;50.080;21.992;2023-02-11T07:10:40;100314.90;;;-1.62;70.38
65872;BME280;52653;50.080;21.992;2023-02-11T07:13:33;100315.00;;;-1.57;70.13
65872;BME280;52653;50.080;21.992;2023-02-11T07:16:18;100311.98;;;-1.51;70.03
65872;BME280;52653;50.080;21.992;2023-02-11T07:19:11;100298.28;;;-1.43;69.82
65872;BME280;52653;50.080;21.992;2023-02-11T07:21:47;100302.05;;;-1.38;69.56
65872;BME280;52653;50.080;21.992;2023-02-11T07:24:20;100304.25;;;-1.32;69.23
65872;BME280;52653;50.080;21.992;2023-02-11T07:27:15;100298.44;;;-1.23;68.87
65872;BME280;52653;50.080;21.992;2023-02-11T07:30:13;100295.30;;;-1.14;68.62
65872;BME280;52653;50.080;21.992;2023-02-11T07:33:06;100290.02;;;-1.07;68.01
65872;BME280;52653;50.080;21.992;2023-02-11T07:36:02;100272.39;;;-0.99;68.08
65872;BME280;52653;50.080;21.992;2023-02-11T07:38:55;100265.67;;;-0.90;67.67
65872;BME280;52653;50.080;21.992;2023-02-11T07:41:43;100269.84;;;-0.83;67.31
65872;BME280;52653;50.080;21.992;2023-02-11T07:44:38;100271.02;;;-0.80;67.18
65872;BME280;52653;50.080;21.992;2023-02-11T07:47:32;100273.46;;;-0.79;66.89
65872;BME280;52653;50.080;21.992;2023-02-11T07:50:17;100268.28;;;-0.77;66.96
65872;BME280;52653;50.080;21.992;2023-02-11T07:53:08;100262.98;;;-0.73;66.82
65872;BME280;52653;50.080;21.992;2023-02-11T07:56:02;100258.33;;;-0.69;66.89
65872;BME280;52653;50.080;21.992;2023-02-11T07:58:48;100260.92;;;-0.66;66.65
65872;BME280;52653;50.080;21.992;2023-02-11T08:01:41;100261.79;;;-0.63;66.31
65872;BME280;52653;50.080;21.992;2023-02-11T08:04:35;100259.60;;;-0.55;66.29
65872;BME280;52653;50.080;21.992;2023-02-11T08:07:28;100260.86;;;-0.45;66.16
65872;BME280;52653;50.080;21.992;2023-02-11T08:10:24;100261.25;;;-0.34;65.92
65872;BME280;52653;50.080;21.992;2023-02-11T08:13:17;100266.39;;;-0.25;65.60
65872;BME280;52653;50.080;21.992;2023-02-11T08:16:18;100267.14;;;-0.20;65.04
65872;BME280;52653;50.080;21.992;2023-02-11T08:19:14;100258.69;;;-0.17;64.96
65872;BME280;52653;50.080;21.992;2023-02-11T08:22:07;100251.45;;;-0.14;64.95
65872;BME280;52653;50.080;21.992;2023-02-11T08:25:03;100256.89;;;-0.12;64.62
65872;BME280;52653;50.080;21.992;2023-02-11T08:27:55;100253.86;;;-0.11;64.61
65872;BME280;52653;50.080;21.992;2023-02-11T08:30:29;100261.45;;;-0.07;64.50
65872;BME280;52653;50.080;21.992;2023-02-11T08:33:13;100261.59;;;-0.04;64.67
65872;BME280;52653;50.080;21.992;2023-02-11T08:36:11;100254.31;;;0.05;64.65
65872;BME280;52653;50.080;21.992;2023-02-11T08:39:03;100250.05;;;0.13;64.47
65872;BME280;52653;50.080;21.992;2023-02-11T08:42:03;100254.45;;;0.18;64.70
65872;BME280;52653;50.080;21.992;2023-02-11T08:44:59;100251.15;;;0.18;63.88
65872;BME280;52653;50.080;21.992;2023-02-11T08:47:45;100248.12;;;0.12;63.82
65872;BME280;52653;50.080;21.992;2023-02-11T08:50:23;100239.36;;;0.10;64.05
65872;BME280;52653;50.080;21.992;2023-02-11T08:53:18;100234.75;;;0.11;64.11
65872;BME280;52653;50.080;21.992;2023-02-11T08:55:52;100222.73;;;0.12;64.04
65872;BME280;52653;50.080;21.992;2023-02-11T08:58:46;100231.44;;;0.13;64.14
65872;BME280;52653;50.080;21.992;2023-02-11T09:01:39;100233.60;;;0.15;64.01
65872;BME280;52653;50.080;21.992;2023-02-11T09:04:34;100227.96;;;0.16;63.94
65872;BME280;52653;50.080;21.992;2023-02-11T09:07:28;100230.20;;;0.16;63.78
65872;BME280;52653;50.080;21.992;2023-02-11T09:10:23;100232.69;;;0.14;63.69
65872;BME280;52653;50.080;21.992;2023-02-11T09:13:16;100235.42;;;0.17;63.83
65872;BME280;52653;50.080;21.992;2023-02-11T09:16:04;100225.30;;;0.25;63.57
65872;BME280;52653;50.080;21.992;2023-02-11T09:18:59;100216.37;;;0.37;63.42
65872;BME280;52653;50.080;21.992;2023-02-11T09:21:51;100203.29;;;0.51;63.01
65872;BME280;52653;50.080;21.992;2023-02-11T09:24:34;100196.29;;;0.71;62.87
65872;BME280;52653;50.080;21.992;2023-02-11T09:27:28;100197.78;;;0.99;62.26
65872;BME280;52653;50.080;21.992;2023-02-11T09:30:22;100199.52;;;1.18;61.53
65872;BME280;52653;50.080;21.992;2023-02-11T09:33:15;100196.39;;;1.33;61.01
65872;BME280;52653;50.080;21.992;2023-02-11T09:36:09;100192.66;;;1.46;60.61
65872;BME280;52653;50.080;21.992;2023-02-11T09:39:03;100190.65;;;1.56;60.51
65872;BME280;52653;50.080;21.992;2023-02-11T09:42:13;100189.14;;;1.68;60.29
65872;BME280;52653;50.080;21.992;2023-02-11T09:45:16;100187.14;;;1.82;59.91
65872;BME280;52653;50.080;21.992;2023-02-11T09:48:00;100181.64;;;1.87;59.33
65872;BME280;52653;50.080;21.992;2023-02-11T09:50:37;100175.42;;;1.87;59.01
65872;BME280;52653;50.080;21.992;2023-02-11T09:53:26;100172.26;;;1.90;59.00
65872;BME280;52653;50.080;21.992;2023-02-11T09:56:20;100161.15;;;2.01;59.08
65872;BME280;52653;50.080;21.992;2023-02-11T09:59:14;100153.55;;;2.14;58.75
65872;BME280;52653;50.080;21.992;2023-02-11T10:02:13;100150.03;;;2.17;58.33
65872;BME280;52653;50.080;21.992;2023-02-11T10:05:27;100139.32;;;2.17;58.61
65872;BME280;52653;50.080;21.992;2023-02-11T10:08:22;100150.60;;;2.23;58.77
65872;BME280;52653;50.080;21.992;2023-02-11T10:11:22;100153.34;;;2.35;58.62
65872;BME280;52653;50.080;21.992;2023-02-11T10:14:14;100149.83;;;2.55;58.83
65872;BME280;52653;50.080;21.992;2023-02-11T10:17:16;100142.92;;;2.69;57.93
65872;BME280;52653;50.080;21.992;2023-02-11T10:20:21;100131.41;;;2.76;57.42
65872;BME280;52653;50.080;21.992;2023-02-11T10:23:18;100126.64;;;2.83;57.53
65872;BME280;52653;50.080;21.992;2023-02-11T10:26:17;100116.26;;;2.83;57.28
65872;BME280;52653;50.080;21.992;2023-02-11T10:28:57;100106.52;;;2.73;56.95
65872;BME280;52653;50.080;21.992;2023-02-11T10:31:52;100112.11;;;2.56;57.34
65872;BME280;52653;50.080;21.992;2023-02-11T10:34:48;100111.05;;;2.43;57.49
65872;BME280;52653;50.080;21.992;2023-02-11T10:37:42;100109.94;;;2.31;57.84
65872;BME280;52653;50.080;21.992;2023-02-11T10:40:36;100097.45;;;2.27;58.36
65872;BME280;52653;50.080;21.992;2023-02-11T10:43:31;100083.92;;;2.26;58.51
65872;BME280;52653;50.080;21.992;2023-02-11T10:46:30;100067.38;;;2.32;58.89
65872;BME280;52653;50.080;21.992;2023-02-11T10:49:39;100062.66;;;2.49;58.27
65872;BME280;52653;50.080;21.992;2023-02-11T10:52:32;100050.20;;;2.67;58.30
65872;BME280;52653;50.080;21.992;2023-02-11T10:55:27;100040.90;;;2.83;58.15
65872;BME280;52653;50.080;21.992;2023-02-11T10:58:29;100040.10;;;2.99;58.01
65872;BME280;52653;50.080;21.992;2023-02-11T11:01:23;100035.92;;;3.13;56.95
65872;BME280;52653;50.080;21.992;2023-02-11T11:04:41;100039.58;;;3.18;56.64
65872;BME280;52653;50.080;21.992;2023-02-11T11:07:37;100037.13;;;3.22;56.78
65872;BME280;52653;50.080;21.992;2023-02-11T11:10:38;100029.94;;;3.25;56.54
65872;BME280;52653;50.080;21.992;2023-02-11T11:13:37;100019.90;;;3.26;56.72
65872;BME280;52653;50.080;21.992;2023-02-11T11:16:25;100009.55;;;3.37;57.03
65872;BME280;52653;50.080;21.992;2023-02-11T11:19:22;100002.73;;;3.51;56.41
65872;BME280;52653;50.080;21.992;2023-02-11T11:22:22;99996.73;;;3.58;55.98
65872;BME280;52653;50.080;21.992;2023-02-11T11:25:27;99985.81;;;3.64;56.12
65872;BME280;52653;50.080;21.992;2023-02-11T11:28:23;99981.96;;;3.74;55.97
65872;BME280;52653;50.080;21.992;2023-02-11T11:31:19;99975.14;;;3.83;55.95
65872;BME280;52653;50.080;21.992;2023-02-11T11:34:27;99965.48;;;3.91;55.63
65872;BME280;52653;50.080;21.992;2023-02-11T11:37:17;99956.88;;;3.98;55.17
65872;BME280;52653;50.080;21.992;2023-02-11T11:40:25;99959.14;;;4.04;55.14
65872;BME280;52653;50.080;21.992;2023-02-11T11:43:19;99958.87;;;4.12;54.96
65872;BME280;52653;50.080;21.992;2023-02-11T11:46:04;99958.70;;;4.25;55.17
65872;BME280;52653;50.080;21.992;2023-02-11T11:48:49;99951.33;;;4.39;54.77
65872;BME280;52653;50.080;21.992;2023-02-11T11:51:38;99958.52;;;4.54;54.56
65872;BME280;52653;50.080;21.992;2023-02-11T11:54:20;99951.70;;;4.65;53.94
65872;BME280;52653;50.080;21.992;2023-02-11T11:57:20;99955.64;;;4.75;53.31
65872;BME280;52653;50.080;21.992;2023-02-11T12:00:18;99961.15;;;4.73;53.38
65872;BME280;52653;50.080;21.992;2023-02-11T12:03:21;99966.66;;;4.59;53.47
65872;BME280;52653;50.080;21.992;2023-02-11T12:06:28;99967.69;;;4.41;53.58
65872;BME280;52653;50.080;21.992;2023-02-11T12:09:28;99972.23;;;4.30;54.31
65872;BME280;52653;50.080;21.992;2023-02-11T12:12:33;99977.27;;;4.42;54.41
65872;BME280;52653;50.080;21.992;2023-02-11T12:15:31;99975.52;;;4.53;54.36
65872;BME280;52653;50.080;21.992;2023-02-11T12:18:27;99968.66;;;4.57;53.81
65872;BME280;52653;50.080;21.992;2023-02-11T12:21:47;99974.27;;;4.58;54.10
65872;BME280;52653;50.080;21.992;2023-02-11T12:25:02;99964.46;;;4.67;54.33
65872;BME280;52653;50.080;21.992;2023-02-11T12:28:02;99960.23;;;4.78;54.02
65872;BME280;52653;50.080;21.992;2023-02-11T12:31:08;99952.92;;;4.78;53.49
65872;BME280;52653;50.080;21.992;2023-02-11T12:34:21;99953.10;;;4.71;54.19
65872;BME280;52653;50.080;21.992;2023-02-11T12:37:37;99953.98;;;4.66;54.46
65872;BME280;52653;50.080;21.992;2023-02-11T12:40:22;99954.42;;;4.45;54.55
65872;BME280;52653;50.080;21.992;2023-02-11T12:43:22;99944.79;;;4.18;54.97
65872;BME280;52653;50.080;21.992;2023-02-11T12:46:37;99941.48;;;3.95;55.76
65872;BME280;52653;50.080;21.992;2023-02-11T12:49:46;99942.54;;;3.78;56.64
65872;BME280;52653;50.080;21.992;2023-02-11T12:53:10;99934.39;;;3.62;57.02
65872;BME280;52653;50.080;21.992;2023-02-11T12:56:13;99923.19;;;3.48;57.36
65872;BME280;52653;50.080;21.992;2023-02-11T12:59:14;99920.44;;;3.38;57.84
65872;BME280;52653;50.080;21.992;2023-02-11T13:02:08;99909.91;;;3.29;57.98
65872;BME280;52653;50.080;21.992;2023-02-11T13:05:12;99901.91;;;3.28;58.31
65872;BME280;52653;50.080;21.992;2023-02-11T13:08:13;99900.25;;;3.30;58.28
65872;BME280;52653;50.080;21.992;2023-02-11T13:11:11;99904.77;;;3.36;58.39
65872;BME280;52653;50.080;21.992;2023-02-11T13:14:11;99901.82;;;3.35;58.22
65872;BME280;52653;50.080;21.992;2023-02-11T13:17:15;99903.36;;;3.30;58.23
65872;BME280;52653;50.080;21.992;2023-02-11T13:20:22;99899.22;;;3.25;58.57
65872;BME280;52653;50.080;21.992;2023-02-11T13:23:17;99890.42;;;3.20;58.79
65872;BME280;52653;50.080;21.992;2023-02-11T13:26:20;99880.00;;;3.15;58.87
65872;BME280;52653;50.080;21.992;2023-02-11T13:29:28;99878.86;;;3.12;59.22
65872;BME280;52653;50.080;21.992;2023-02-11T13:32:16;99875.07;;;3.07;59.42
65872;BME280;52653;50.080;21.992;2023-02-11T13:35:02;99866.70;;;3.01;59.54
65872;BME280;52653;50.080;21.992;2023-02-11T13:37:57;99864.70;;;2.98;59.73
65872;BME280;52653;50.080;21.992;2023-02-11T13:41:00;99858.84;;;2.92;60.11
65872;BME280;52653;50.080;21.992;2023-02-11T13:44:22;99855.80;;;2.85;60.32
65872;BME280;52653;50.080;21.992;2023-02-11T13:47:40;99864.90;;;2.78;60.85
65872;BME280;52653;50.080;21.992;2023-02-11T13:50:37;99877.59;;;2.69;60.86
65872;BME280;52653;50.080;21.992;2023-02-11T13:53:35;99890.89;;;2.58;61.32
65872;BME280;52653;50.080;21.992;2023-02-11T13:56:38;99893.80;;;2.47;61.71
65872;BME280;52653;50.080;21.992;2023-02-11T13:59:48;99896.00;;;2.36;61.98
65872;BME280;52653;50.080;21.992;2023-02-11T14:02:41;99909.55;;;2.23;62.29
65872;BME280;52653;50.080;21.992;2023-02-11T14:06:10;99917.38;;;2.15;62.76
65872;BME280;52653;50.080;21.992;2023-02-11T14:09:37;99933.37;;;2.08;63.11
65872;BME280;52653;50.080;21.992;2023-02-11T14:12:33;99929.70;;;2.03;63.66
65872;BME280;52653;50.080;21.992;2023-02-11T14:15:50;99929.53;;;2.02;64.36
65872;BME280;52653;50.080;21.992;2023-02-11T14:19:01;99920.58;;;2.03;65.35
65872;BME280;52653;50.080;21.992;2023-02-11T14:22:02;99912.10;;;2.03;66.68
65872;BME280;52653;50.080;21.992;2023-02-11T14:24:58;99909.06;;;2.01;67.42
65872;BME280;52653;50.080;21.992;2023-02-11T14:27:54;99915.23;;;1.95;68.58
65872;BME280;52653;50.080;21.992;2023-02-11T14:31:01;99916.63;;;1.86;69.65
65872;BME280;52653;50.080;21.992;2023-02-11T14:37:27;99921.23;;;1.75;71.32
65872;BME280;52653;50.080;21.992;2023-02-11T14:40:28;99924.73;;;1.72;72.21
65872;BME280;52653;50.080;21.992;2023-02-11T14:43:26;99920.55;;;1.71;73.11
65872;BME280;52653;50.080;21.992;2023-02-11T14:46:23;99907.21;;;1.70;73.97
65872;BME280;52653;50.080;21.992;2023-02-11T14:49:25;99897.36;;;1.71;74.39
65872;BME280;52653;50.080;21.992;2023-02-11T14:52:26;99889.36;;;1.69;75.03
65872;BME280;52653;50.080;21.992;2023-02-11T14:55:29;99884.05;;;1.62;75.94
65872;BME280;52653;50.080;21.992;2023-02-11T14:58:26;99888.39;;;1.53;76.75
65872;BME280;52653;50.080;21.992;2023-02-11T15:01:31;99895.31;;;1.40;77.51
65872;BME280;52653;50.080;21.992;2023-02-11T15:04:27;99897.55;;;1.27;78.74
65872;BME280;52653;50.080;21.992;2023-02-11T15:07:20;99900.08;;;1.13;79.34
65872;BME280;52653;50.080;21.992;2023-02-11T15:10:20;99890.77;;;1.05;80.25
65872;BME280;52653;50.080;21.992;2023-02-11T15:13:20;99892.08;;;0.99;80.87
65872;BME280;52653;50.080;21.992;2023-02-11T15:16:20;99891.26;;;0.96;81.33
65872;BME280;52653;50.080;21.992;2023-02-11T15:19:20;99886.68;;;0.94;81.69
65872;BME280;52653;50.080;21.992;2023-02-11T15:22:21;99893.09;;;0.90;81.98
65872;BME280;52653;50.080;21.992;2023-02-11T15:25:16;99894.83;;;0.87;82.33